sensor_id;sensor_type;location;lat;lon;timestamp;P1;durP1;ratioP1;P2;durP2;ratioP2
4921;SDS011;16625;53.624;10.106;2023-04-03T00:01:03;8.87;;;3.37;;
4921;SDS011;16625;53.624;10.106;2023-04-03T00:03:31;19.30;;;3.60;;
4921;SDS011;16625;53.624;10.106;2023-04-03T00:06:00;9.50;;;4.40;;
4921;SDS011;16625;53.624;10.106;2023-04-03T00:08:27;5.33;;;3.30;;
4921;SDS011;16625;53.624;10.106;2023-04-03T00:10:55;5.90;;;3.70;;
4921;SDS011;16625;53.624;10.106;2023-04-03T00:13:24;7.97;;;3.67;;
4921;SDS011;16625;53.624;10.106;2023-04-03T00:15:52;8.07;;;3.43;;
4921;SDS011;16625;53.624;10.106;2023-04-03T00:18:19;3.97;;;3.57;;
4921;SDS011;16625;53.624;10.106;2023-04-03T00:20:47;7.03;;;3.47;;
4921;SDS011;16625;53.624;10.106;2023-04-03T00:23:14;5.37;;;3.27;;
4921;SDS011;16625;53.624;10.106;2023-04-03T00:25:41;6.50;;;2.70;;
4921;SDS011;16625;53.624;10.106;2023-04-03T00:28:11;3.53;;;2.90;;
4921;SDS011;16625;53.624;10.106;2023-04-03T00:30:40;4.57;;;3.47;;
4921;SDS011;16625;53.624;10.106;2023-04-03T00:33:20;6.90;;;3.80;;
4921;SDS011;16625;53.624;10.106;2023-04-03T00:35:51;8.47;;;3.73;;
4921;SDS011;16625;53.624;10.106;2023-04-03T00:38:18;15.33;;;3.20;;
4921;SDS011;16625;53.624;10.106;2023-04-03T00:40:46;6.40;;;2.70;;
4921;SDS011;16625;53.624;10.106;2023-04-03T00:43:15;7.10;;;2.90;;
4921;SDS011;16625;53.624;10.106;2023-04-03T00:45:47;4.83;;;3.10;;
4921;SDS011;16625;53.624;10.106;2023-04-03T00:48:17;5.97;;;2.90;;
4921;SDS011;16625;53.624;10.106;2023-04-03T00:50:46;4.43;;;3.30;;
4921;SDS011;16625;53.624;10.106;2023-04-03T00:53:16;22.07;;;3.50;;
4921;SDS011;16625;53.624;10.106;2023-04-03T00:55:45;7.83;;;3.17;;
4921;SDS011;16625;53.624;10.106;2023-04-03T00:58:15;4.40;;;3.40;;
4921;SDS011;16625;53.624;10.106;2023-04-03T01:00:55;5.40;;;3.03;;
4921;SDS011;16625;53.624;10.106;2023-04-03T01:03:25;5.93;;;3.27;;
4921;SDS011;16625;53.624;10.106;2023-04-03T01:05:52;5.57;;;3.40;;
4921;SDS011;16625;53.624;10.106;2023-04-03T01:08:20;5.40;;;2.90;;
4921;SDS011;16625;53.624;10.106;2023-04-03T01:10:47;8.97;;;3.00;;
4921;SDS011;16625;53.624;10.106;2023-04-03T01:13:19;4.13;;;2.80;;
4921;SDS011;16625;53.624;10.106;2023-04-03T01:15:48;10.43;;;3.40;;
4921;SDS011;16625;53.624;10.106;2023-04-03T01:18:17;4.20;;;3.50;;
4921;SDS011;16625;53.624;10.106;2023-04-03T01:20:57;4.80;;;3.23;;
4921;SDS011;16625;53.624;10.106;2023-04-03T01:23:52;4.53;;;2.90;;
4921;SDS011;16625;53.624;10.106;2023-04-03T01:26:36;7.43;;;3.10;;
4921;SDS011;16625;53.624;10.106;2023-04-03T01:29:03;3.57;;;3.00;;
4921;SDS011;16625;53.624;10.106;2023-04-03T01:31:31;6.13;;;3.57;;
4921;SDS011;16625;53.624;10.106;2023-04-03T01:34:15;4.10;;;3.27;;
4921;SDS011;16625;53.624;10.106;2023-04-03T01:36:42;4.23;;;3.20;;
4921;SDS011;16625;53.624;10.106;2023-04-03T01:39:17;5.37;;;3.77;;
4921;SDS011;16625;53.624;10.106;2023-04-03T01:41:44;5.93;;;3.57;;
4921;SDS011;16625;53.624;10.106;2023-04-03T01:44:12;11.97;;;3.77;;
4921;SDS011;16625;53.624;10.106;2023-04-03T01:46:39;5.87;;;4.30;;
4921;SDS011;16625;53.624;10.106;2023-04-03T01:49:07;11.00;;;4.27;;
4921;SDS011;16625;53.624;10.106;2023-04-03T01:51:35;10.20;;;4.30;;
4921;SDS011;16625;53.624;10.106;2023-04-03T01:54:02;10.33;;;3.27;;
4921;SDS011;16625;53.624;10.106;2023-04-03T01:56:29;6.20;;;3.00;;
4921;SDS011;16625;53.624;10.106;2023-04-03T01:58:56;5.23;;;4.03;;
4921;SDS011;16625;53.624;10.106;2023-04-03T02:01:23;9.17;;;4.00;;
4921;SDS011;16625;53.624;10.106;2023-04-03T02:03:50;11.03;;;3.63;;
4921;SDS011;16625;53.624;10.106;2023-04-03T02:06:19;10.00;;;4.90;;
4921;SDS011;16625;53.624;10.106;2023-04-03T02:08:56;5.93;;;3.57;;
4921;SDS011;16625;53.624;10.106;2023-04-03T02:11:23;6.67;;;3.70;;
4921;SDS011;16625;53.624;10.106;2023-04-03T02:13:50;6.10;;;4.43;;
4921;SDS011;16625;53.624;10.106;2023-04-03T02:16:17;5.13;;;3.67;;
4921;SDS011;16625;53.624;10.106;2023-04-03T02:18:44;13.90;;;4.00;;
4921;SDS011;16625;53.624;10.106;2023-04-03T02:21:11;11.10;;;4.10;;
4921;SDS011;16625;53.624;10.106;2023-04-03T02:23:40;5.40;;;3.50;;
4921;SDS011;16625;53.624;10.106;2023-04-03T02:26:08;9.17;;;4.80;;
4921;SDS011;16625;53.624;10.106;2023-04-03T02:28:37;9.40;;;3.97;;
4921;SDS011;16625;53.624;10.106;2023-04-03T02:31:04;9.03;;;3.50;;
4921;SDS011;16625;53.624;10.106;2023-04-03T02:33:32;6.43;;;4.00;;
4921;SDS011;16625;53.624;10.106;2023-04-03T02:36:01;3.33;;;2.87;;
4921;SDS011;16625;53.624;10.106;2023-04-03T02:38:28;5.77;;;3.17;;
4921;SDS011;16625;53.624;10.106;2023-04-03T02:41:00;6.10;;;3.90;;
4921;SDS011;16625;53.624;10.106;2023-04-03T02:43:28;12.50;;;3.93;;
4921;SDS011;16625;53.624;10.106;2023-04-03T02:45:54;4.37;;;3.23;;
4921;SDS011;16625;53.624;10.106;2023-04-03T02:48:23;6.23;;;3.70;;
4921;SDS011;16625;53.624;10.106;2023-04-03T02:50:50;6.43;;;3.60;;
4921;SDS011;16625;53.624;10.106;2023-04-03T02:53:17;6.10;;;3.47;;
4921;SDS011;16625;53.624;10.106;2023-04-03T02:55:45;11.37;;;4.00;;
4921;SDS011;16625;53.624;10.106;2023-04-03T02:58:14;4.07;;;3.63;;
4921;SDS011;16625;53.624;10.106;2023-04-03T03:00:41;3.40;;;3.10;;
4921;SDS011;16625;53.624;10.106;2023-04-03T03:03:08;3.67;;;3.27;;
4921;SDS011;16625;53.624;10.106;2023-04-03T03:05:35;4.27;;;3.50;;
4921;SDS011;16625;53.624;10.106;2023-04-03T03:08:02;9.33;;;3.30;;
4921;SDS011;16625;53.624;10.106;2023-04-03T03:10:30;4.23;;;2.80;;
4921;SDS011;16625;53.624;10.106;2023-04-03T03:12:57;6.87;;;3.10;;
4921;SDS011;16625;53.624;10.106;2023-04-03T03:15:27;4.17;;;3.77;;
4921;SDS011;16625;53.624;10.106;2023-04-03T03:17:54;7.73;;;3.73;;
4921;SDS011;16625;53.624;10.106;2023-04-03T03:20:21;4.03;;;2.70;;
4921;SDS011;16625;53.624;10.106;2023-04-03T03:22:48;8.23;;;3.30;;
4921;SDS011;16625;53.624;10.106;2023-04-03T03:25:15;15.30;;;3.47;;
4921;SDS011;16625;53.624;10.106;2023-04-03T03:27:42;4.73;;;3.20;;
4921;SDS011;16625;53.624;10.106;2023-04-03T03:30:09;5.07;;;3.77;;
4921;SDS011;16625;53.624;10.106;2023-04-03T03:32:38;7.23;;;4.03;;
4921;SDS011;16625;53.624;10.106;2023-04-03T03:35:05;4.60;;;2.60;;
4921;SDS011;16625;53.624;10.106;2023-04-03T03:37:33;8.47;;;3.27;;
4921;SDS011;16625;53.624;10.106;2023-04-03T03:40:01;9.40;;;3.23;;
4921;SDS011;16625;53.624;10.106;2023-04-03T03:42:28;4.40;;;3.13;;
4921;SDS011;16625;53.624;10.106;2023-04-03T03:44:55;4.03;;;3.63;;
4921;SDS011;16625;53.624;10.106;2023-04-03T03:50:10;4.13;;;3.73;;
4921;SDS011;16625;53.624;10.106;2023-04-03T03:52:37;6.03;;;4.37;;
4921;SDS011;16625;53.624;10.106;2023-04-03T03:55:04;9.47;;;3.27;;
4921;SDS011;16625;53.624;10.106;2023-04-03T03:57:31;4.30;;;3.43;;
4921;SDS011;16625;53.624;10.106;2023-04-03T03:59:58;9.67;;;4.63;;
4921;SDS011;16625;53.624;10.106;2023-04-03T04:02:26;6.17;;;4.00;;
4921;SDS011;16625;53.624;10.106;2023-04-03T04:04:55;4.60;;;3.37;;
4921;SDS011;16625;53.624;10.106;2023-04-03T04:07:22;6.50;;;3.23;;
4921;SDS011;16625;53.624;10.106;2023-04-03T04:09:49;5.27;;;3.70;;
4921;SDS011;16625;53.624;10.106;2023-04-03T04:12:16;4.47;;;3.43;;
4921;SDS011;16625;53.624;10.106;2023-04-03T04:14:43;3.37;;;3.07;;
4921;SDS011;16625;53.624;10.106;2023-04-03T04:17:11;6.03;;;3.57;;
4921;SDS011;16625;53.624;10.106;2023-04-03T04:19:38;5.17;;;3.40;;
4921;SDS011;16625;53.624;10.106;2023-04-03T04:22:07;5.00;;;3.10;;
4921;SDS011;16625;53.624;10.106;2023-04-03T04:24:34;4.70;;;3.13;;
4921;SDS011;16625;53.624;10.106;2023-04-03T04:27:01;8.33;;;3.97;;
4921;SDS011;16625;53.624;10.106;2023-04-03T04:29:28;4.13;;;3.60;;
4921;SDS011;16625;53.624;10.106;2023-04-03T04:32:00;5.97;;;2.90;;
4921;SDS011;16625;53.624;10.106;2023-04-03T04:34:27;10.77;;;4.50;;
4921;SDS011;16625;53.624;10.106;2023-04-03T04:36:54;4.50;;;4.10;;
4921;SDS011;16625;53.624;10.106;2023-04-03T04:39:23;7.57;;;3.10;;
4921;SDS011;16625;53.624;10.106;2023-04-03T04:41:50;9.30;;;4.00;;
4921;SDS011;16625;53.624;10.106;2023-04-03T04:44:17;3.70;;;3.10;;
4921;SDS011;16625;53.624;10.106;2023-04-03T04:46:45;7.70;;;3.73;;
4921;SDS011;16625;53.624;10.106;2023-04-03T04:49:12;4.87;;;3.70;;
4921;SDS011;16625;53.624;10.106;2023-04-03T04:51:38;4.43;;;3.50;;
4921;SDS011;16625;53.624;10.106;2023-04-03T04:54:05;7.50;;;2.93;;
4921;SDS011;16625;53.624;10.106;2023-04-03T04:59:23;10.13;;;3.90;;
4921;SDS011;16625;53.624;10.106;2023-04-03T05:01:50;10.63;;;3.50;;
4921;SDS011;16625;53.624;10.106;2023-04-03T05:04:17;6.30;;;3.63;;
4921;SDS011;16625;53.624;10.106;2023-04-03T05:06:44;7.00;;;4.23;;
4921;SDS011;16625;53.624;10.106;2023-04-03T05:09:11;6.93;;;3.73;;
4921;SDS011;16625;53.624;10.106;2023-04-03T05:11:38;5.73;;;3.27;;
4921;SDS011;16625;53.624;10.106;2023-04-03T05:14:07;6.93;;;4.03;;
4921;SDS011;16625;53.624;10.106;2023-04-03T05:16:34;4.60;;;3.00;;
4921;SDS011;16625;53.624;10.106;2023-04-03T05:19:02;9.33;;;4.50;;
4921;SDS011;16625;53.624;10.106;2023-04-03T05:21:29;3.77;;;3.03;;
4921;SDS011;16625;53.624;10.106;2023-04-03T05:23:57;11.43;;;3.63;;
4921;SDS011;16625;53.624;10.106;2023-04-03T05:26:27;6.07;;;3.60;;
4921;SDS011;16625;53.624;10.106;2023-04-03T05:28:54;5.80;;;3.50;;
4921;SDS011;16625;53.624;10.106;2023-04-03T05:31:23;10.47;;;5.03;;
4921;SDS011;16625;53.624;10.106;2023-04-03T05:33:50;7.47;;;4.90;;
4921;SDS011;16625;53.624;10.106;2023-04-03T05:36:17;5.83;;;3.90;;
4921;SDS011;16625;53.624;10.106;2023-04-03T05:38:44;19.97;;;4.27;;
4921;SDS011;16625;53.624;10.106;2023-04-03T05:41:11;4.10;;;3.70;;
4921;SDS011;16625;53.624;10.106;2023-04-03T05:43:39;5.90;;;4.33;;
4921;SDS011;16625;53.624;10.106;2023-04-03T05:46:08;6.03;;;4.10;;
4921;SDS011;16625;53.624;10.106;2023-04-03T05:48:38;5.90;;;3.90;;
4921;SDS011;16625;53.624;10.106;2023-04-03T05:51:05;5.37;;;4.10;;
4921;SDS011;16625;53.624;10.106;2023-04-03T05:53:34;7.67;;;4.73;;
4921;SDS011;16625;53.624;10.106;2023-04-03T05:56:03;10.47;;;4.23;;
4921;SDS011;16625;53.624;10.106;2023-04-03T05:58:30;10.20;;;4.77;;
4921;SDS011;16625;53.624;10.106;2023-04-03T06:00:57;13.90;;;4.70;;
4921;SDS011;16625;53.624;10.106;2023-04-03T06:03:26;13.50;;;5.80;;
4921;SDS011;16625;53.624;10.106;2023-04-03T06:05:55;5.33;;;4.60;;
4921;SDS011;16625;53.624;10.106;2023-04-03T06:08:28;13.80;;;5.30;;
4921;SDS011;16625;53.624;10.106;2023-04-03T06:10:55;7.87;;;4.07;;
4921;SDS011;16625;53.624;10.106;2023-04-03T06:13:22;15.23;;;5.70;;
4921;SDS011;16625;53.624;10.106;2023-04-03T06:15:49;9.53;;;4.43;;
4921;SDS011;16625;53.624;10.106;2023-04-03T06:18:16;7.27;;;4.80;;
4921;SDS011;16625;53.624;10.106;2023-04-03T06:20:45;10.30;;;4.70;;
4921;SDS011;16625;53.624;10.106;2023-04-03T06:23:13;13.00;;;7.17;;
4921;SDS011;16625;53.624;10.106;2023-04-03T06:25:46;7.33;;;5.47;;
4921;SDS011;16625;53.624;10.106;2023-04-03T06:28:13;11.83;;;6.17;;
4921;SDS011;16625;53.624;10.106;2023-04-03T06:30:41;7.67;;;4.77;;
4921;SDS011;16625;53.624;10.106;2023-04-03T06:33:26;9.90;;;4.80;;
4921;SDS011;16625;53.624;10.106;2023-04-03T06:35:57;6.13;;;4.70;;
4921;SDS011;16625;53.624;10.106;2023-04-03T06:38:27;11.43;;;6.37;;
4921;SDS011;16625;53.624;10.106;2023-04-03T06:40:54;8.37;;;3.80;;
4921;SDS011;16625;53.624;10.106;2023-04-03T06:43:22;10.53;;;4.60;;
4921;SDS011;16625;53.624;10.106;2023-04-03T06:45:49;5.63;;;4.17;;
4921;SDS011;16625;53.624;10.106;2023-04-03T06:48:16;7.10;;;3.50;;
4921;SDS011;16625;53.624;10.106;2023-04-03T06:50:43;4.87;;;3.90;;
4921;SDS011;16625;53.624;10.106;2023-04-03T06:53:10;10.23;;;4.70;;
4921;SDS011;16625;53.624;10.106;2023-04-03T06:55:39;8.00;;;3.73;;
4921;SDS011;16625;53.624;10.106;2023-04-03T06:58:09;10.50;;;4.90;;
4921;SDS011;16625;53.624;10.106;2023-04-03T07:00:36;9.40;;;3.80;;
4921;SDS011;16625;53.624;10.106;2023-04-03T07:03:04;6.97;;;4.00;;
4921;SDS011;16625;53.624;10.106;2023-04-03T07:05:31;11.40;;;4.03;;
4921;SDS011;16625;53.624;10.106;2023-04-03T07:07:58;8.10;;;3.97;;
4921;SDS011;16625;53.624;10.106;2023-04-03T07:10:25;6.30;;;3.90;;
4921;SDS011;16625;53.624;10.106;2023-04-03T07:12:54;7.50;;;3.20;;
4921;SDS011;16625;53.624;10.106;2023-04-03T07:15:21;13.13;;;2.77;;
4921;SDS011;16625;53.624;10.106;2023-04-03T07:17:48;6.20;;;3.17;;
4921;SDS011;16625;53.624;10.106;2023-04-03T07:20:15;8.13;;;3.50;;
4921;SDS011;16625;53.624;10.106;2023-04-03T07:22:42;4.23;;;2.83;;
4921;SDS011;16625;53.624;10.106;2023-04-03T07:25:09;2.80;;;2.60;;
4921;SDS011;16625;53.624;10.106;2023-04-03T07:27:36;7.97;;;3.10;;
4921;SDS011;16625;53.624;10.106;2023-04-03T07:30:05;3.27;;;2.50;;
4921;SDS011;16625;53.624;10.106;2023-04-03T07:32:33;8.97;;;2.63;;
4921;SDS011;16625;53.624;10.106;2023-04-03T07:35:00;26.33;;;3.60;;
4921;SDS011;16625;53.624;10.106;2023-04-03T07:37:27;10.63;;;2.90;;
4921;SDS011;16625;53.624;10.106;2023-04-03T07:39:54;5.97;;;3.37;;
4921;SDS011;16625;53.624;10.106;2023-04-03T07:42:23;10.23;;;2.20;;
4921;SDS011;16625;53.624;10.106;2023-04-03T07:44:54;3.60;;;2.33;;
4921;SDS011;16625;53.624;10.106;2023-04-03T07:47:23;8.13;;;3.13;;
4921;SDS011;16625;53.624;10.106;2023-04-03T07:49:50;5.77;;;3.20;;
4921;SDS011;16625;53.624;10.106;2023-04-03T07:52:17;3.80;;;2.57;;
4921;SDS011;16625;53.624;10.106;2023-04-03T07:54:44;4.03;;;2.17;;
4921;SDS011;16625;53.624;10.106;2023-04-03T07:57:11;6.73;;;3.10;;
4921;SDS011;16625;53.624;10.106;2023-04-03T07:59:37;6.07;;;2.63;;
4921;SDS011;16625;53.624;10.106;2023-04-03T08:02:07;5.83;;;2.33;;
4921;SDS011;16625;53.624;10.106;2023-04-03T08:04:36;7.23;;;3.03;;
4921;SDS011;16625;53.624;10.106;2023-04-03T08:07:03;6.00;;;2.73;;
4921;SDS011;16625;53.624;10.106;2023-04-03T08:09:31;9.10;;;2.97;;
4921;SDS011;16625;53.624;10.106;2023-04-03T08:11:58;4.30;;;2.37;;
4921;SDS011;16625;53.624;10.106;2023-04-03T08:14:26;4.97;;;2.20;;
4921;SDS011;16625;53.624;10.106;2023-04-03T08:16:53;3.43;;;2.50;;
4921;SDS011;16625;53.624;10.106;2023-04-03T08:19:19;2.77;;;2.40;;
4921;SDS011;16625;53.624;10.106;2023-04-03T08:21:48;2.53;;;2.33;;
4921;SDS011;16625;53.624;10.106;2023-04-03T08:24:15;6.23;;;2.40;;
4921;SDS011;16625;53.624;10.106;2023-04-03T08:26:42;4.90;;;2.20;;
4921;SDS011;16625;53.624;10.106;2023-04-03T08:29:09;5.40;;;1.90;;
4921;SDS011;16625;53.624;10.106;2023-04-03T08:31:36;3.27;;;2.30;;
4921;SDS011;16625;53.624;10.106;2023-04-03T08:34:04;5.23;;;2.30;;
4921;SDS011;16625;53.624;10.106;2023-04-03T08:36:31;6.20;;;2.10;;
4921;SDS011;16625;53.624;10.106;2023-04-03T08:39:00;9.93;;;3.00;;
4921;SDS011;16625;53.624;10.106;2023-04-03T08:41:29;3.30;;;2.00;;
4921;SDS011;16625;53.624;10.106;2023-04-03T08:44:03;3.67;;;2.30;;
4921;SDS011;16625;53.624;10.106;2023-04-03T08:46:45;6.67;;;2.53;;
4921;SDS011;16625;53.624;10.106;2023-04-03T08:49:22;3.63;;;2.10;;
4921;SDS011;16625;53.624;10.106;2023-04-03T08:51:53;3.93;;;1.90;;
4921;SDS011;16625;53.624;10.106;2023-04-03T08:54:34;6.77;;;2.87;;
4921;SDS011;16625;53.624;10.106;2023-04-03T08:57:04;3.40;;;2.30;;
4921;SDS011;16625;53.624;10.106;2023-04-03T08:59:32;2.53;;;2.33;;
4921;SDS011;16625;53.624;10.106;2023-04-03T09:02:04;2.30;;;2.10;;
4921;SDS011;16625;53.624;10.106;2023-04-03T09:04:41;2.23;;;2.03;;
4921;SDS011;16625;53.624;10.106;2023-04-03T09:07:09;2.33;;;2.10;;
4921;SDS011;16625;53.624;10.106;2023-04-03T09:09:43;4.37;;;1.80;;
4921;SDS011;16625;53.624;10.106;2023-04-03T09:12:16;3.70;;;2.07;;
4921;SDS011;16625;53.624;10.106;2023-04-03T09:14:47;3.40;;;2.30;;
4921;SDS011;16625;53.624;10.106;2023-04-03T09:17:30;6.33;;;1.90;;
4921;SDS011;16625;53.624;10.106;2023-04-03T09:20:08;1.93;;;1.60;;
4921;SDS011;16625;53.624;10.106;2023-04-03T09:22:43;2.40;;;2.20;;
4921;SDS011;16625;53.624;10.106;2023-04-03T09:25:13;2.50;;;2.10;;
4921;SDS011;16625;53.624;10.106;2023-04-03T09:27:43;2.50;;;1.90;;
4921;SDS011;16625;53.624;10.106;2023-04-03T09:30:12;5.90;;;2.00;;
4921;SDS011;16625;53.624;10.106;2023-04-03T09:32:41;2.77;;;2.20;;
4921;SDS011;16625;53.624;10.106;2023-04-03T09:35:16;2.50;;;2.23;;
4921;SDS011;16625;53.624;10.106;2023-04-03T09:37:47;4.00;;;2.07;;
4921;SDS011;16625;53.624;10.106;2023-04-03T09:45:47;3.13;;;1.83;;
4921;SDS011;16625;53.624;10.106;2023-04-03T09:48:18;3.07;;;2.13;;
4921;SDS011;16625;53.624;10.106;2023-04-03T09:50:58;6.93;;;2.50;;
4921;SDS011;16625;53.624;10.106;2023-04-03T09:53:30;4.53;;;2.03;;
4921;SDS011;16625;53.624;10.106;2023-04-03T09:56:02;3.10;;;2.40;;
4921;SDS011;16625;53.624;10.106;2023-04-03T09:58:37;3.63;;;2.10;;
4921;SDS011;16625;53.624;10.106;2023-04-03T10:01:09;2.90;;;2.37;;
4921;SDS011;16625;53.624;10.106;2023-04-03T10:03:50;5.50;;;2.13;;
4921;SDS011;16625;53.624;10.106;2023-04-03T10:06:31;6.80;;;2.07;;
4921;SDS011;16625;53.624;10.106;2023-04-03T10:09:04;3.50;;;1.80;;
4921;SDS011;16625;53.624;10.106;2023-04-03T10:11:34;5.23;;;2.23;;
4921;SDS011;16625;53.624;10.106;2023-04-03T10:14:02;5.57;;;1.90;;
4921;SDS011;16625;53.624;10.106;2023-04-03T10:16:32;5.30;;;2.40;;
4921;SDS011;16625;53.624;10.106;2023-04-03T10:19:19;2.63;;;1.70;;
4921;SDS011;16625;53.624;10.106;2023-04-03T10:21:57;3.27;;;1.93;;
4921;SDS011;16625;53.624;10.106;2023-04-03T10:24:28;4.10;;;1.83;;
4921;SDS011;16625;53.624;10.106;2023-04-03T10:27:05;2.73;;;1.90;;
4921;SDS011;16625;53.624;10.106;2023-04-03T10:29:40;3.23;;;1.83;;
4921;SDS011;16625;53.624;10.106;2023-04-03T10:32:23;4.23;;;1.90;;
4921;SDS011;16625;53.624;10.106;2023-04-03T10:35:02;2.43;;;1.67;;
4921;SDS011;16625;53.624;10.106;2023-04-03T10:37:41;4.00;;;2.30;;
4921;SDS011;16625;53.624;10.106;2023-04-03T10:40:20;3.77;;;2.27;;
4921;SDS011;16625;53.624;10.106;2023-04-03T10:43:01;4.90;;;1.90;;
4921;SDS011;16625;53.624;10.106;2023-04-03T10:45:36;7.00;;;2.20;;
4921;SDS011;16625;53.624;10.106;2023-04-03T10:48:14;6.77;;;2.10;;
4921;SDS011;16625;53.624;10.106;2023-04-03T10:50:51;2.83;;;1.93;;
4921;SDS011;16625;53.624;10.106;2023-04-03T10:53:25;3.90;;;2.27;;
4921;SDS011;16625;53.624;10.106;2023-04-03T10:55:58;3.60;;;2.00;;
4921;SDS011;16625;53.624;10.106;2023-04-03T10:58:38;3.70;;;2.20;;
4921;SDS011;16625;53.624;10.106;2023-04-03T11:01:10;4.23;;;2.33;;
4921;SDS011;16625;53.624;10.106;2023-04-03T11:03:41;4.33;;;2.30;;
4921;SDS011;16625;53.624;10.106;2023-04-03T11:06:11;4.73;;;2.37;;
4921;SDS011;16625;53.624;10.106;2023-04-03T11:08:44;2.40;;;1.83;;
4921;SDS011;16625;53.624;10.106;2023-04-03T11:11:16;6.60;;;2.57;;
4921;SDS011;16625;53.624;10.106;2023-04-03T11:13:49;5.10;;;2.03;;
4921;SDS011;16625;53.624;10.106;2023-04-03T11:16:24;4.30;;;2.33;;
4921;SDS011;16625;53.624;10.106;2023-04-03T11:18:57;4.40;;;2.30;;
4921;SDS011;16625;53.624;10.106;2023-04-03T11:21:29;4.90;;;2.30;;
4921;SDS011;16625;53.624;10.106;2023-04-03T11:24:01;7.47;;;2.70;;
4921;SDS011;16625;53.624;10.106;2023-04-03T11:26:35;3.07;;;1.90;;
4921;SDS011;16625;53.624;10.106;2023-04-03T11:29:11;5.63;;;3.20;;
4921;SDS011;16625;53.624;10.106;2023-04-03T11:31:46;4.80;;;1.90;;
4921;SDS011;16625;53.624;10.106;2023-04-03T11:34:30;3.20;;;2.00;;
4921;SDS011;16625;53.624;10.106;2023-04-03T11:37:05;2.40;;;1.83;;
4921;SDS011;16625;53.624;10.106;2023-04-03T11:39:40;3.00;;;1.93;;
4921;SDS011;16625;53.624;10.106;2023-04-03T11:42:17;4.97;;;1.90;;
4921;SDS011;16625;53.624;10.106;2023-04-03T11:44:57;3.50;;;2.33;;
4921;SDS011;16625;53.624;10.106;2023-04-03T11:47:44;11.90;;;1.83;;
4921;SDS011;16625;53.624;10.106;2023-04-03T11:55:59;11.70;;;2.70;;
4921;SDS011;16625;53.624;10.106;2023-04-03T11:58:29;4.30;;;2.40;;
4921;SDS011;16625;53.624;10.106;2023-04-03T12:01:03;5.47;;;2.10;;
4921;SDS011;16625;53.624;10.106;2023-04-03T12:12:54;3.23;;;1.70;;
4921;SDS011;16625;53.624;10.106;2023-04-03T12:15:38;7.23;;;2.13;;
4921;SDS011;16625;53.624;10.106;2023-04-03T12:18:36;2.87;;;2.33;;
4921;SDS011;16625;53.624;10.106;2023-04-03T12:21:08;3.53;;;2.10;;
4921;SDS011;16625;53.624;10.106;2023-04-03T12:23:57;4.43;;;1.90;;
4921;SDS011;16625;53.624;10.106;2023-04-03T12:26:30;3.60;;;2.40;;
4921;SDS011;16625;53.624;10.106;2023-04-03T12:29:17;3.60;;;2.13;;
4921;SDS011;16625;53.624;10.106;2023-04-03T12:31:50;2.87;;;1.63;;
4921;SDS011;16625;53.624;10.106;2023-04-03T12:37:44;5.07;;;1.60;;
4921;SDS011;16625;53.624;10.106;2023-04-03T12:41:07;4.30;;;2.17;;
4921;SDS011;16625;53.624;10.106;2023-04-03T12:44:09;2.30;;;1.90;;
4921;SDS011;16625;53.624;10.106;2023-04-03T12:46:48;3.30;;;2.50;;
4921;SDS011;16625;53.624;10.106;2023-04-03T12:49:26;3.03;;;2.10;;
4921;SDS011;16625;53.624;10.106;2023-04-03T12:52:02;3.97;;;1.73;;
4921;SDS011;16625;53.624;10.106;2023-04-03T12:54:42;3.77;;;2.37;;
4921;SDS011;16625;53.624;10.106;2023-04-03T12:57:19;2.27;;;1.73;;
4921;SDS011;16625;53.624;10.106;2023-04-03T13:16:58;5.10;;;2.43;;
4921;SDS011;16625;53.624;10.106;2023-04-03T13:19:46;3.33;;;2.20;;
4921;SDS011;16625;53.624;10.106;2023-04-03T13:25:24;3.23;;;1.80;;
4921;SDS011;16625;53.624;10.106;2023-04-03T13:28:39;4.47;;;2.30;;
4921;SDS011;16625;53.624;10.106;2023-04-03T13:37:58;3.10;;;1.93;;
4921;SDS011;16625;53.624;10.106;2023-04-03T13:40:28;3.60;;;2.00;;
4921;SDS011;16625;53.624;10.106;2023-04-03T13:42:59;4.40;;;2.10;;
4921;SDS011;16625;53.624;10.106;2023-04-03T13:45:30;3.73;;;1.90;;
4921;SDS011;16625;53.624;10.106;2023-04-03T13:48:16;3.63;;;2.00;;
4921;SDS011;16625;53.624;10.106;2023-04-03T13:50:54;2.90;;;1.80;;
4921;SDS011;16625;53.624;10.106;2023-04-03T13:53:26;6.30;;;1.90;;
4921;SDS011;16625;53.624;10.106;2023-04-03T13:55:57;2.53;;;1.73;;
4921;SDS011;16625;53.624;10.106;2023-04-03T13:58:35;2.87;;;1.80;;
4921;SDS011;16625;53.624;10.106;2023-04-03T14:01:09;2.70;;;1.50;;
4921;SDS011;16625;53.624;10.106;2023-04-03T14:03:52;2.47;;;1.93;;
4921;SDS011;16625;53.624;10.106;2023-04-03T14:06:21;2.60;;;2.00;;
4921;SDS011;16625;53.624;10.106;2023-04-03T14:08:51;2.83;;;2.23;;
4921;SDS011;16625;53.624;10.106;2023-04-03T14:11:19;4.03;;;2.40;;
4921;SDS011;16625;53.624;10.106;2023-04-03T14:13:49;2.00;;;1.73;;
4921;SDS011;16625;53.624;10.106;2023-04-03T14:16:19;2.13;;;1.70;;
4921;SDS011;16625;53.624;10.106;2023-04-03T14:18:47;3.83;;;2.70;;
4921;SDS011;16625;53.624;10.106;2023-04-03T14:21:18;2.43;;;1.70;;
4921;SDS011;16625;53.624;10.106;2023-04-03T14:23:46;2.80;;;1.80;;
4921;SDS011;16625;53.624;10.106;2023-04-03T14:26:16;3.60;;;2.30;;
4921;SDS011;16625;53.624;10.106;2023-04-03T14:28:45;7.00;;;2.40;;
4921;SDS011;16625;53.624;10.106;2023-04-03T14:31:15;4.97;;;1.93;;
4921;SDS011;16625;53.624;10.106;2023-04-03T14:33:47;3.50;;;2.00;;
4921;SDS011;16625;53.624;10.106;2023-04-03T14:36:16;4.93;;;2.20;;
4921;SDS011;16625;53.624;10.106;2023-04-03T14:38:47;3.73;;;2.70;;
4921;SDS011;16625;53.624;10.106;2023-04-03T14:41:17;3.57;;;2.40;;
4921;SDS011;16625;53.624;10.106;2023-04-03T14:43:45;7.17;;;2.80;;
4921;SDS011;16625;53.624;10.106;2023-04-03T14:46:14;2.90;;;2.10;;
4921;SDS011;16625;53.624;10.106;2023-04-03T14:48:42;5.30;;;2.10;;
4921;SDS011;16625;53.624;10.106;2023-04-03T14:51:10;6.53;;;2.60;;
4921;SDS011;16625;53.624;10.106;2023-04-03T14:53:38;3.70;;;2.23;;
4921;SDS011;16625;53.624;10.106;2023-04-03T14:56:11;3.00;;;2.00;;
4921;SDS011;16625;53.624;10.106;2023-04-03T14:58:40;3.73;;;2.13;;
4921;SDS011;16625;53.624;10.106;2023-04-03T15:01:09;6.97;;;2.50;;
4921;SDS011;16625;53.624;10.106;2023-04-03T15:03:39;4.70;;;2.17;;
4921;SDS011;16625;53.624;10.106;2023-04-03T15:06:06;5.10;;;2.37;;
4921;SDS011;16625;53.624;10.106;2023-04-03T15:08:35;4.70;;;2.80;;
4921;SDS011;16625;53.624;10.106;2023-04-03T15:11:02;2.60;;;1.77;;
4921;SDS011;16625;53.624;10.106;2023-04-03T15:13:31;5.10;;;1.87;;
4921;SDS011;16625;53.624;10.106;2023-04-03T15:15:59;5.00;;;2.10;;
4921;SDS011;16625;53.624;10.106;2023-04-03T15:18:27;3.77;;;2.30;;
4921;SDS011;16625;53.624;10.106;2023-04-03T15:20:55;3.80;;;2.20;;
4921;SDS011;16625;53.624;10.106;2023-04-03T15:23:22;3.67;;;2.40;;
4921;SDS011;16625;53.624;10.106;2023-04-03T15:25:51;4.10;;;2.60;;
4921;SDS011;16625;53.624;10.106;2023-04-03T15:28:21;12.70;;;2.73;;
4921;SDS011;16625;53.624;10.106;2023-04-03T15:30:52;4.00;;;2.23;;
4921;SDS011;16625;53.624;10.106;2023-04-03T15:33:23;5.80;;;1.87;;
4921;SDS011;16625;53.624;10.106;2023-04-03T15:35:51;2.97;;;2.10;;
4921;SDS011;16625;53.624;10.106;2023-04-03T15:38:18;2.67;;;1.90;;
4921;SDS011;16625;53.624;10.106;2023-04-03T15:40:46;3.77;;;2.50;;
4921;SDS011;16625;53.624;10.106;2023-04-03T15:43:13;4.87;;;2.13;;
4921;SDS011;16625;53.624;10.106;2023-04-03T15:45:41;4.37;;;2.30;;
4921;SDS011;16625;53.624;10.106;2023-04-03T15:48:10;2.50;;;1.70;;
4921;SDS011;16625;53.624;10.106;2023-04-03T15:50:39;4.53;;;2.23;;
4921;SDS011;16625;53.624;10.106;2023-04-03T15:53:07;5.43;;;2.40;;
4921;SDS011;16625;53.624;10.106;2023-04-03T15:55:35;6.13;;;2.60;;
4921;SDS011;16625;53.624;10.106;2023-04-03T15:58:10;2.73;;;2.27;;
4921;SDS011;16625;53.624;10.106;2023-04-03T16:00:37;4.90;;;2.40;;
4921;SDS011;16625;53.624;10.106;2023-04-03T16:03:08;3.10;;;2.03;;